FW4330 Weather Reports


Display with metric or nautical units.
time (UTC)temp
F
wind
direction
speed
MPH
gust
MPH
rain 1hr
in
rain 24hr
in
rain mn
in
humidity
%
barometer
mb
20191018082552 63 270 0.0 0.0 0.00 0.00 0.00 97 1025.7
20191018075556 63 0 0.0 0.0 0.00 0.00 0.00 94 1025.8
20191018072558 63 225 0.0 0.0 0.00 0.00 0.00 91 1025.5
20191018065555 64 270 0.0 0.0 0.00 0.00 0.00 85 1025.4
20191018062552 64 315 0.0 0.0 0.00 0.00 0.00 83 1024.9
20191018055556 66 270 0.0 1.0 0.00 0.00 0.00 74 1025.0
20191018052556 66 0 0.0 0.0 0.00 0.00 0.00 72 1024.8
20191018045555 66 0 0.0 1.0 0.00 0.00 0.00 73 1024.9
20191018042555 66 270 2.0 3.0 0.00 0.00 0.00 70 1025.0
20191018035555 67 270 0.0 2.0 0.00 0.00 0.00 68 1025.5
20191018032556 67 270 1.0 3.0 0.00 0.00 0.00 66 1025.8
20191018025555 67 270 1.0 3.0 0.00 0.00 0.00 63 1026.1
20191018022552 67 0 2.0 3.0 0.00 0.00 0.00 63 1025.7
20191018015552 68 270 1.0 2.0 0.00 0.00 0.00 64 1025.6
20191018012555 69 270 1.0 2.0 0.00 0.00 0.00 60 1025.6
20191018005552 69 270 2.0 3.0 0.00 0.00 0.00 57 1025.7
20191018002555 69 180 1.0 3.0 0.00 0.00 0.00 60 1026.7
20191017235552 67 315 2.0 3.0 0.00 0.00 0.00 66 1028.1
20191017232558 63 315 0.0 0.0 0.00 0.00 0.00 75 1029.7
20191017225552 61 270 0.0 0.0 0.00 0.00 0.00 80 1030.8
20191017222552 59 270 0.0 0.0 0.00 0.00 0.00 86 1030.8
20191017215555 57 270 0.0 0.0 0.00 0.00 0.00 89 1030.6
20191017212553 57 270 1.0 2.0 0.00 0.00 0.00 87 1030.1
20191017205558 59 270 0.0 1.0 0.00 0.00 0.00 84 1030.0
20191017202555 60 270 1.0 2.0 0.00 0.00 0.00 82 1029.5
20191017195555 58 270 0.0 1.0 0.00 0.00 0.00 80 1029.3
20191017192556 59 270 0.0 0.0 0.00 0.00 0.00 81 1029.1
20191017185558 61 270 0.0 0.0 0.00 0.00 0.00 75 1028.4
20191017182558 60 180 0.0 0.0 0.00 0.00 0.00 79 1028.1
20191017175558 61 0 3.0 3.0 0.00 0.00 0.00 78 1027.8
20191017172556 61 270 0.0 0.0 0.00 0.00 0.00 78 1027.1
20191017165552 61 315 0.0 0.0 0.00 0.00 0.00 76 1026.8
20191017162555 61 225 0.0 2.0 0.00 0.00 0.00 76 1026.5
20191017155555 61 270 2.0 3.0 0.00 0.00 0.00 75 1025.9
20191017152558 63 270 3.0 5.0 0.00 0.00 0.00 72 1025.0
20191017145552 62 0 0.0 2.0 0.00 0.00 0.00 72 1024.2
20191017142555 62 270 0.0 2.0 0.00 0.00 0.00 74 1023.2
20191017135558 61 270 0.0 0.0 0.00 0.00 0.00 74 1022.1
20191017132552 61 315 0.0 1.0 0.00 0.00 0.00 74 1022.7
20191017125558 63 180 1.0 3.0 0.00 0.00 0.00 73 1022.8
20191017122559 61 0 0.0 2.0 0.00 0.00 0.00 76 1023.7
20191017115555 60 270 0.0 0.0 0.00 0.00 0.00 75 1024.7
20191017112555 62 270 0.0 0.0 0.00 0.00 0.00 73 1026.6
20191017105552 63 270 0.0 1.0 0.00 0.00 0.00 70 1029.9
20191017102552 63 225 2.0 3.0 0.00 0.00 0.00 68 1031.0
20191017095558 63 315 0.0 0.0 0.00 0.00 0.00 68 1031.4
20191017092557 64 225 0.0 2.0 0.00 0.00 0.00 64 1031.5
20191017085552 64 270 0.0 0.0 0.00 0.00 0.00 61 1031.3